Terminal Aerodrome Forecast
Issued by NWS Tuscon, AZ

Home | Current Version | Previous Version | Text Only | Print | Product List | Glossary On
Versions: 1 2 3 4 5 6 7 8 9 10 11 12 13
000
FTUS45 KTWC 011137
TAFDUG
TAF
KDUG 011137Z 0112/0212 VRB03KT P6SM FEW120 BKN200
     FM011700 17006KT P6SM SCT070 SCT200
     FM012000 20009KT P6SM VCTS SCT060CB BKN100
     FM020100 16008KT P6SM SCT060 BKN100
     FM020500 02007KT P6SM SCT100 BKN180=

USA.gov is the U.S. government's official web portal to all federal, state and local government web resources and services.